Time;durP1;ratioP1;P1;durP2;ratioP2;P2;SDS_P1;SDS_P2;PMS_P1;PMS_P2;Temp;Humidity;BMP_temperature;BMP_pressure;BME280_temperature;BME280_humidity;BME280_pressure;Samples;Min_cycle;Max_cycle;Signal;HPM_P1;HPM_P2
2023/03/08 00:01:01;;;;;;;4.88;1.90;;;-0.40;99.90;;;;;;6239282;23;20406;-83
2023/03/08 00:03:27;;;;;;;5.05;2.15;;;-0.40;99.90;;;;;;6211737;23;20012;-83
2023/03/08 00:53:47;;;;;;;5.57;2.20;;;-0.70;99.90;;;;;;3747757;23;20070;-84
2023/03/08 00:56:13;;;;;;;6.13;2.10;;;-0.70;99.90;;;;;;6188413;23;20246;-83
2023/03/08 00:58:40;;;;;;;8.75;2.80;;;-0.70;99.90;;;;;;6240324;23;20350;-83
2023/03/08 01:01:07;;;;;;;7.18;2.78;;;-0.70;99.90;;;;;;6214345;23;20060;-83
2023/03/08 01:03:34;;;;;;;7.28;2.60;;;-0.70;99.90;;;;;;6240349;23;20062;-84
2023/03/08 01:06:06;;;;;;;6.53;2.30;;;-0.70;99.90;;;;;;6240216;23;20019;-84
2023/03/08 01:08:31;;;;;;;8.50;2.42;;;-0.70;99.90;;;;;;6238430;23;20066;-83
2023/03/08 01:10:59;;;;;;;6.70;2.50;;;-0.70;99.90;;;;;;6241038;23;20008;-84
2023/03/08 01:13:28;;;;;;;7.10;2.53;;;-0.70;99.90;;;;;;6240047;23;20058;-84
2023/03/08 01:15:53;;;;;;;6.55;3.03;;;-0.70;99.90;;;;;;6240786;23;20015;-83
2023/03/08 01:18:19;;;;;;;9.30;3.08;;;-0.70;99.90;;;;;;6239990;23;20381;-83
2023/03/08 01:20:54;;;;;;;6.50;2.50;;;-0.60;99.90;;;;;;6240667;23;20023;-83
2023/03/08 01:23:21;;;;;;;7.50;3.10;;;-0.70;99.90;;;;;;6239600;23;20008;-84
2023/03/08 01:25:46;;;;;;;7.07;2.88;;;-0.70;99.90;;;;;;6239880;23;20004;-83
2023/03/08 01:28:12;;;;;;;8.73;2.83;;;-0.70;99.90;;;;;;6239763;23;20013;-84
2023/03/08 01:30:37;;;;;;;6.22;2.67;;;-0.70;99.90;;;;;;6240612;23;20015;-84
2023/03/08 01:33:03;;;;;;;8.02;3.30;;;-0.70;99.90;;;;;;6241066;23;20043;-84
2023/03/08 01:35:29;;;;;;;8.32;3.47;;;-0.80;99.90;;;;;;6239650;23;20035;-83
2023/03/08 01:37:54;;;;;;;10.32;3.60;;;-0.70;99.90;;;;;;6239664;23;20433;-84
2023/03/08 01:40:20;;;;;;;6.95;3.30;;;-0.80;99.90;;;;;;6240105;23;20027;-84
2023/03/08 01:42:46;;;;;;;8.68;3.55;;;-0.70;99.90;;;;;;6188512;23;20023;-84
2023/03/08 01:45:49;;;;;;;9.48;3.92;;;-0.80;99.90;;;;;;6240219;23;20008;-83
2023/03/08 01:48:16;;;;;;;9.15;3.97;;;-0.80;99.90;;;;;;6211899;23;20020;-84
2023/03/08 01:50:45;;;;;;;9.73;4.68;;;-0.80;99.90;;;;;;6239883;23;20015;-84
2023/03/08 01:53:12;;;;;;;10.10;4.47;;;-0.80;99.90;;;;;;6240145;23;20087;-84
2023/03/08 01:55:38;;;;;;;9.20;4.07;;;-0.80;99.90;;;;;;6239768;23;20016;-84
2023/03/08 01:58:03;;;;;;;12.02;5.55;;;-0.70;99.90;;;;;;6240157;23;20009;-83
2023/03/08 02:00:29;;;;;;;10.93;5.55;;;-0.70;99.90;;;;;;6239722;23;20019;-84
2023/03/08 02:03:07;;;;;;;12.90;5.55;;;-0.70;99.90;;;;;;6213950;23;20667;-83
2023/03/08 02:05:36;;;;;;;11.75;5.53;;;-0.80;99.90;;;;;;6238524;23;20019;-83
2023/03/08 02:08:01;;;;;;;11.27;6.18;;;-0.70;99.90;;;;;;6239848;23;20096;-83
2023/03/08 02:10:27;;;;;;;10.85;6.07;;;-0.70;99.90;;;;;;6212398;23;20062;-83
2023/03/08 02:12:54;;;;;;;12.73;6.13;;;-0.70;99.90;;;;;;6240315;23;20073;-84
2023/03/08 02:15:21;;;;;;;12.70;5.97;;;-0.70;99.90;;;;;;6239779;23;20084;-83
2023/03/08 02:17:46;;;;;;;11.05;5.65;;;-0.80;99.90;;;;;;6239865;23;20012;-83
2023/03/08 02:20:21;;;;;;;10.20;6.00;;;-0.80;99.90;;;;;;6213601;23;20398;-84
2023/03/08 02:22:50;;;;;;;12.75;6.20;;;-0.80;99.90;;;;;;6240204;23;20397;-83
2023/03/08 02:25:21;;;;;;;11.32;6.15;;;-0.80;99.90;;;;;;6240216;23;20008;-84
2023/03/08 02:27:48;;;;;;;11.85;6.20;;;-0.80;99.90;;;;;;6189137;23;20014;-84
2023/03/08 02:30:16;;;;;;;13.98;6.50;;;-0.80;99.90;;;;;;6214298;23;20045;-84
2023/03/08 02:32:42;;;;;;;11.63;6.25;;;-0.80;99.90;;;;;;6214166;23;20082;-83
2023/03/08 02:35:08;;;;;;;12.93;7.25;;;-0.80;99.90;;;;;;6214972;23;20016;-84
2023/03/08 02:37:33;;;;;;;13.57;6.88;;;-0.80;99.90;;;;;;6216067;23;20380;-83
2023/03/08 02:39:59;;;;;;;13.52;6.72;;;-0.90;99.90;;;;;;6247322;23;20019;-83
2023/03/08 02:42:25;;;;;;;15.40;6.75;;;-0.90;99.90;;;;;;6241639;23;20018;-84
2023/03/08 02:44:50;;;;;;;12.55;7.03;;;-0.90;99.90;;;;;;6215348;23;20012;-84
2023/03/08 02:47:16;;;;;;;15.82;7.63;;;-0.90;99.90;;;;;;6239382;23;20015;-84
2023/03/08 02:49:42;;;;;;;12.20;7.03;;;-0.90;99.90;;;;;;6240424;23;20063;-84
2023/03/08 02:52:07;;;;;;;12.10;7.32;;;-0.80;99.90;;;;;;6240419;23;20012;-83
2023/03/08 02:54:33;;;;;;;12.52;7.15;;;-0.80;99.90;;;;;;6201631;23;20023;-83
2023/03/08 02:56:58;;;;;;;13.93;6.55;;;-0.90;99.90;;;;;;6209318;23;20016;-83
2023/03/08 02:59:25;;;;;;;12.25;6.60;;;-0.90;99.90;;;;;;6181969;23;20028;-83
2023/03/08 03:01:51;;;;;;;14.43;7.50;;;-0.90;99.90;;;;;;6209471;23;20330;-83
2023/03/08 03:04:17;;;;;;;13.15;6.53;;;-0.90;99.90;;;;;;6182651;23;20066;-83
2023/03/08 03:06:42;;;;;;;11.88;6.88;;;-0.90;99.90;;;;;;6209845;23;20004;-84
2023/03/08 03:09:11;;;;;;;12.20;6.80;;;-0.90;99.90;;;;;;6184113;23;20019;-83
2023/03/08 03:11:39;;;;;;;11.75;6.97;;;-0.90;99.90;;;;;;6184444;23;20017;-84
2023/03/08 03:14:04;;;;;;;11.73;7.60;;;-0.90;99.90;;;;;;6183339;23;20016;-83
2023/03/08 03:16:30;;;;;;;14.32;8.07;;;-0.90;99.90;;;;;;6207299;23;20291;-83
2023/03/08 03:18:56;;;;;;;13.20;8.13;;;-0.90;99.90;;;;;;6210660;23;20434;-84
2023/03/08 03:21:22;;;;;;;14.60;8.10;;;-0.90;99.90;;;;;;6211123;23;20083;-83
2023/03/08 03:23:48;;;;;;;12.75;7.30;;;-0.90;99.90;;;;;;6210772;23;20326;-83
2023/03/08 03:26:17;;;;;;;13.38;7.35;;;-0.80;99.90;;;;;;6209079;23;20013;-84
2023/03/08 03:28:43;;;;;;;15.05;8.32;;;-0.90;99.90;;;;;;6209049;23;20067;-84
2023/03/08 03:31:11;;;;;;;13.55;7.78;;;-0.90;99.90;;;;;;6209585;23;20012;-84
2023/03/08 03:33:38;;;;;;;13.60;7.93;;;-0.90;99.90;;;;;;6209374;23;20039;-84
2023/03/08 03:36:04;;;;;;;11.13;7.22;;;-0.90;99.90;;;;;;6209791;23;20058;-84
2023/03/08 03:38:30;;;;;;;12.00;6.55;;;-0.90;99.90;;;;;;6208928;23;20330;-84
2023/03/08 03:41:04;;;;;;;11.25;6.78;;;-0.90;99.90;;;;;;6210228;23;20012;-83
2023/03/08 03:43:30;;;;;;;12.70;7.75;;;-1.00;99.90;;;;;;6208730;23;20008;-83
2023/03/08 03:45:57;;;;;;;12.30;7.13;;;-1.00;99.90;;;;;;6209077;23;20088;-84
2023/03/08 03:48:23;;;;;;;12.50;7.93;;;-1.00;99.90;;;;;;6209674;23;20020;-84
2023/03/08 03:51:00;;;;;;;11.80;7.10;;;-1.00;99.90;;;;;;6184046;23;20012;-84
2023/03/08 03:53:28;;;;;;;12.82;7.53;;;-1.00;99.90;;;;;;6210251;23;20326;-84
2023/03/08 03:55:54;;;;;;;13.95;7.35;;;-1.00;99.90;;;;;;6184337;23;20009;-83
2023/03/08 03:58:20;;;;;;;12.77;7.68;;;-1.00;99.90;;;;;;6210163;23;20317;-84
2023/03/08 04:00:45;;;;;;;13.88;8.18;;;-1.00;99.90;;;;;;6181608;23;20012;-84
2023/03/08 04:03:11;;;;;;;12.45;7.50;;;-1.00;99.90;;;;;;6208738;23;20099;-84
2023/03/08 04:05:38;;;;;;;15.45;7.60;;;-1.10;99.90;;;;;;6209370;23;20017;-84
2023/03/08 04:08:05;;;;;;;12.55;7.30;;;-1.10;99.90;;;;;;6209874;23;20031;-84
2023/03/08 04:10:31;;;;;;;13.65;7.68;;;-1.10;99.90;;;;;;6181878;23;20021;-83
2023/03/08 04:12:57;;;;;;;11.38;6.57;;;-1.10;99.90;;;;;;6210071;23;20091;-83
2023/03/08 04:15:23;;;;;;;12.98;7.53;;;-1.10;99.90;;;;;;6208873;23;20023;-84
2023/03/08 04:17:50;;;;;;;13.55;8.75;;;-1.10;99.90;;;;;;6184203;23;20056;-83
2023/03/08 04:20:15;;;;;;;15.48;8.75;;;-1.10;99.90;;;;;;6183866;23;20023;-84
2023/03/08 04:22:41;;;;;;;13.73;9.15;;;-1.10;99.90;;;;;;6183862;23;20013;-83
2023/03/08 04:25:07;;;;;;;14.77;8.90;;;-1.10;99.90;;;;;;6211813;23;20051;-84
2023/03/08 04:27:32;;;;;;;14.13;8.93;;;-1.10;99.90;;;;;;6159602;23;20063;-84
2023/03/08 04:29:58;;;;;;;14.27;8.85;;;-1.10;99.90;;;;;;6183864;23;20024;-84
2023/03/08 04:32:24;;;;;;;14.45;9.23;;;-1.10;99.90;;;;;;6211117;23;20031;-84
2023/03/08 04:34:49;;;;;;;14.10;8.77;;;-1.10;99.90;;;;;;6211359;23;20013;-82
2023/03/08 04:37:15;;;;;;;14.55;9.80;;;-1.10;99.90;;;;;;6186263;23;20288;-83
2023/03/08 04:39:41;;;;;;;12.90;8.25;;;-1.10;99.90;;;;;;6184687;23;20023;-84
2023/03/08 04:42:06;;;;;;;15.90;9.10;;;-1.10;99.90;;;;;;6184763;23;20021;-84
2023/03/08 04:44:32;;;;;;;15.30;9.55;;;-1.10;99.90;;;;;;6182967;23;20008;-83
2023/03/08 04:46:57;;;;;;;16.10;9.63;;;-1.00;99.90;;;;;;6184285;23;20080;-84
2023/03/08 04:49:24;;;;;;;14.40;10.15;;;-1.10;99.90;;;;;;6210429;23;20012;-84
2023/03/08 04:51:49;;;;;;;13.38;8.65;;;-1.10;99.90;;;;;;6211193;23;20016;-84
2023/03/08 04:54:15;;;;;;;15.68;8.90;;;-1.10;99.90;;;;;;6218074;23;20027;-84
2023/03/08 04:56:41;;;;;;;16.02;9.15;;;-1.10;99.90;;;;;;6240717;23;20020;-83
2023/03/08 04:59:06;;;;;;;12.93;8.65;;;-1.10;99.90;;;;;;6213552;23;20020;-83
2023/03/08 05:01:32;;;;;;;12.82;8.68;;;-1.10;99.90;;;;;;6213940;23;20023;-84
2023/03/08 05:03:58;;;;;;;14.30;9.57;;;-1.10;99.90;;;;;;6241879;23;20087;-84
2023/03/08 05:06:26;;;;;;;14.20;9.48;;;-1.10;99.90;;;;;;6241080;23;20012;-84
2023/03/08 05:08:53;;;;;;;13.00;8.73;;;-1.10;99.90;;;;;;6213461;23;20016;-83
2023/03/08 05:11:24;;;;;;;15.32;9.10;;;-1.20;99.90;;;;;;6241239;23;20373;-83
2023/03/08 05:13:53;;;;;;;12.70;9.10;;;-1.20;99.90;;;;;;6213906;23;20033;-83
2023/03/08 05:16:19;;;;;;;15.38;9.77;;;-1.20;99.90;;;;;;6240188;23;20113;-83
2023/03/08 05:18:45;;;;;;;16.15;10.25;;;-1.20;99.90;;;;;;6214034;23;20365;-84
2023/03/08 05:21:13;;;;;;;14.85;9.82;;;-1.20;99.90;;;;;;6241056;23;20438;-84
2023/03/08 05:23:40;;;;;;;15.43;9.30;;;-1.20;99.90;;;;;;6214879;23;20018;-84
2023/03/08 05:26:07;;;;;;;16.67;9.23;;;-1.20;99.90;;;;;;6214398;23;20008;-84
2023/03/08 05:28:33;;;;;;;14.32;9.00;;;-1.20;99.90;;;;;;6212531;23;20023;-84
2023/03/08 05:31:07;;;;;;;14.50;8.43;;;-1.30;99.90;;;;;;6241586;23;20044;-84
2023/03/08 05:33:34;;;;;;;16.52;9.95;;;-1.30;99.90;;;;;;6240795;23;20075;-83
2023/03/08 05:36:00;;;;;;;14.35;10.32;;;-1.30;99.90;;;;;;6215128;23;20012;-84
2023/03/08 05:38:26;;;;;;;13.98;9.68;;;-1.30;99.90;;;;;;6215197;23;20034;-83
2023/03/08 05:40:52;;;;;;;15.80;9.68;;;-1.40;99.90;;;;;;6215586;23;20016;-84
2023/03/08 05:43:18;;;;;;;15.20;9.50;;;-1.40;99.90;;;;;;6243416;23;20504;-84
2023/03/08 05:45:57;;;;;;;15.27;8.85;;;-1.40;99.90;;;;;;6219986;23;20027;-83
2023/03/08 05:48:24;;;;;;;16.30;9.63;;;-1.40;99.90;;;;;;6251265;23;20012;-84
2023/03/08 05:50:50;;;;;;;15.50;9.65;;;-1.40;99.90;;;;;;6221700;23;20022;-83
2023/03/08 05:53:15;;;;;;;16.23;10.10;;;-1.50;99.90;;;;;;6245857;23;20079;-84
2023/03/08 05:55:41;;;;;;;13.75;8.82;;;-1.40;99.90;;;;;;6244685;23;20011;-84
2023/03/08 05:58:06;;;;;;;14.45;9.82;;;-1.50;99.90;;;;;;6215510;23;20501;-85
2023/03/08 06:00:32;;;;;;;18.23;11.30;;;-1.50;99.90;;;;;;6188225;23;20389;-85
2023/03/08 06:03:02;;;;;;;15.20;9.65;;;-1.40;99.90;;;;;;6241045;23;20035;-84
2023/03/08 06:05:28;;;;;;;15.05;9.27;;;-1.50;99.90;;;;;;6213029;23;20008;-85
2023/03/08 06:07:54;;;;;;;12.52;8.45;;;-1.50;99.90;;;;;;6240717;23;20089;-85
2023/03/08 06:10:20;;;;;;;15.02;9.77;;;-1.50;99.90;;;;;;6240305;23;20087;-86
2023/03/08 06:12:46;;;;;;;15.07;10.50;;;-1.50;99.90;;;;;;6189151;23;20047;-84
2023/03/08 06:15:12;;;;;;;15.30;10.02;;;-1.50;99.90;;;;;;6213819;23;20394;-88
2023/03/08 06:17:39;;;;;;;15.48;10.00;;;-1.40;99.90;;;;;;6240246;23;20023;-85
2023/03/08 06:20:06;;;;;;;14.00;10.40;;;-1.40;99.90;;;;;;6211485;23;20162;-85
2023/03/08 06:22:32;;;;;;;18.85;10.63;;;-1.40;99.90;;;;;;6236856;23;20019;-83
2023/03/08 06:24:57;;;;;;;15.43;10.45;;;-1.40;99.90;;;;;;6211896;23;20012;-85
2023/03/08 06:27:23;;;;;;;17.13;10.48;;;-1.40;99.90;;;;;;6212740;23;20020;-86
2023/03/08 06:29:49;;;;;;;14.65;10.00;;;-1.40;99.90;;;;;;6212065;23;20089;-85
2023/03/08 06:32:16;;;;;;;15.32;9.90;;;-1.40;99.90;;;;;;6239207;23;20012;-85
2023/03/08 06:34:42;;;;;;;13.35;9.30;;;-1.40;99.90;;;;;;6241195;23;20024;-83
2023/03/08 06:37:08;;;;;;;13.55;9.75;;;-1.40;99.90;;;;;;6213577;23;20404;-85
2023/03/08 06:39:34;;;;;;;16.15;10.20;;;-1.30;99.90;;;;;;6211770;23;20016;-85
2023/03/08 06:42:02;;;;;;;16.33;10.73;;;-1.30;99.90;;;;;;6213715;23;20016;-84
2023/03/08 06:44:29;;;;;;;12.60;8.95;;;-1.30;99.90;;;;;;6238878;23;20031;-84
2023/03/08 06:46:55;;;;;;;16.50;9.63;;;-1.30;99.90;;;;;;6239712;23;20039;-84
2023/03/08 06:49:21;;;;;;;13.10;8.88;;;-1.30;99.90;;;;;;6238536;23;20027;-85
2023/03/08 06:51:47;;;;;;;13.73;8.55;;;-1.30;99.90;;;;;;6238346;23;20405;-83
2023/03/08 06:54:16;;;;;;;14.02;9.07;;;-1.30;99.90;;;;;;6210462;23;20043;-82
2023/03/08 06:56:43;;;;;;;15.18;9.40;;;-1.30;99.90;;;;;;6186635;23;20016;-84
2023/03/08 06:59:11;;;;;;;15.73;9.02;;;-1.30;99.90;;;;;;6238865;23;20016;-85
2023/03/08 07:01:36;;;;;;;13.32;8.57;;;-1.30;99.90;;;;;;6235734;23;20008;-83
2023/03/08 07:04:02;;;;;;;13.85;7.97;;;-1.20;99.90;;;;;;6212026;23;20428;-82
2023/03/08 07:06:28;;;;;;;11.90;7.60;;;-1.20;99.90;;;;;;6212365;23;20019;-86
2023/03/08 07:08:53;;;;;;;15.75;8.70;;;-1.20;99.90;;;;;;6237940;23;20020;-87
2023/03/08 07:11:19;;;;;;;14.23;7.72;;;-1.20;99.90;;;;;;6212791;23;20643;-91
2023/03/08 07:13:44;;;;;;;13.15;8.32;;;-1.20;99.90;;;;;;6212209;23;20342;-88
2023/03/08 07:16:12;;;;;;;12.73;7.95;;;-1.10;99.90;;;;;;6187991;23;20083;-89
2023/03/08 07:18:38;;;;;;;13.40;7.78;;;-1.10;99.90;;;;;;6241168;23;20012;-89
2023/03/08 07:21:04;;;;;;;14.70;8.57;;;-1.00;99.90;;;;;;6214298;23;20012;-88
2023/03/08 07:23:30;;;;;;;15.50;9.20;;;-1.00;99.90;;;;;;6239448;23;20079;-89
2023/03/08 07:25:56;;;;;;;15.10;9.45;;;-0.90;99.90;;;;;;6187266;23;20086;-88
2023/03/08 07:28:21;;;;;;;14.05;9.88;;;-0.90;99.90;;;;;;6237889;23;20024;-89
2023/03/08 07:30:51;;;;;;;12.43;8.68;;;-0.80;99.90;;;;;;6187003;23;20050;-88
2023/03/08 07:33:18;;;;;;;13.73;8.98;;;-0.80;99.90;;;;;;6241370;23;20011;-89
2023/03/08 07:35:43;;;;;;;17.08;9.73;;;-0.70;99.90;;;;;;6240839;23;20012;-88
2023/03/08 07:38:11;;;;;;;12.55;8.95;;;-0.60;99.90;;;;;;6241530;23;20012;-86
2023/03/08 07:40:37;;;;;;;11.80;8.35;;;-0.50;99.90;;;;;;6212125;23;20012;-88
2023/03/08 07:43:02;;;;;;;15.13;8.23;;;-0.50;99.90;;;;;;6213483;23;20476;-87
2023/03/08 07:45:28;;;;;;;14.80;9.10;;;-0.40;99.90;;;;;;6239464;23;20016;-87
2023/03/08 07:47:54;;;;;;;14.70;8.63;;;-0.30;99.90;;;;;;6238796;23;20013;-88
2023/03/08 07:50:20;;;;;;;15.60;9.23;;;-0.30;99.90;;;;;;6238091;23;20012;-87
2023/03/08 07:52:47;;;;;;;14.18;9.65;;;-0.20;99.90;;;;;;6241130;23;20069;-88
2023/03/08 07:55:12;;;;;;;15.43;9.68;;;-0.10;99.90;;;;;;6241567;23;20031;-85
2023/03/08 07:57:38;;;;;;;14.68;10.40;;;-0.10;99.90;;;;;;6242558;23;20012;-87
2023/03/08 08:00:08;;;;;;;15.50;10.07;;;0.00;99.90;;;;;;6213671;23;20020;-87
2023/03/08 08:02:35;;;;;;;14.35;10.15;;;0.00;99.90;;;;;;6213684;23;20074;-88
2023/03/08 08:05:01;;;;;;;15.05;10.50;;;0.00;99.90;;;;;;6217911;23;20016;-87
2023/03/08 08:07:27;;;;;;;16.10;10.68;;;0.10;99.90;;;;;;6216602;23;20016;-88
2023/03/08 08:09:53;;;;;;;15.93;10.40;;;0.10;99.90;;;;;;6242551;23;20083;-87
2023/03/08 08:12:19;;;;;;;14.57;11.07;;;0.10;99.90;;;;;;6241277;23;20091;-87
2023/03/08 08:14:44;;;;;;;16.50;11.70;;;0.10;99.90;;;;;;6216462;23;20054;-87
2023/03/08 08:17:11;;;;;;;18.05;11.27;;;0.20;99.90;;;;;;6217385;23;20030;-88
2023/03/08 08:19:37;;;;;;;15.25;10.95;;;0.20;99.90;;;;;;6191700;23;20393;-86
2023/03/08 08:22:03;;;;;;;16.88;11.52;;;0.20;99.90;;;;;;6215577;23;20012;-85
2023/03/08 08:24:31;;;;;;;17.77;11.93;;;0.30;99.90;;;;;;6214333;23;20012;-86
2023/03/08 08:26:57;;;;;;;17.90;12.48;;;0.30;99.90;;;;;;6214124;23;20018;-87
2023/03/08 08:29:23;;;;;;;18.42;12.30;;;0.40;99.90;;;;;;6214914;23;20478;-85
2023/03/08 08:31:51;;;;;;;19.67;12.45;;;0.40;99.90;;;;;;6251671;23;20015;-86
2023/03/08 08:34:18;;;;;;;19.40;12.70;;;0.40;99.90;;;;;;6200934;23;20016;-86
2023/03/08 08:36:44;;;;;;;17.65;11.63;;;0.40;99.90;;;;;;6191122;23;20020;-87
2023/03/08 08:39:09;;;;;;;21.50;13.20;;;0.40;99.90;;;;;;6188970;23;20023;-87
2023/03/08 08:41:35;;;;;;;19.27;13.70;;;0.40;99.90;;;;;;6214696;23;20442;-86
2023/03/08 08:44:01;;;;;;;19.27;14.10;;;0.40;99.90;;;;;;6214195;23;20027;-86
2023/03/08 08:46:27;;;;;;;20.42;14.57;;;0.50;99.90;;;;;;6214172;23;20063;-86
2023/03/08 08:48:54;;;;;;;21.80;15.32;;;0.50;99.90;;;;;;6242990;23;20016;-86
2023/03/08 08:51:20;;;;;;;21.80;15.23;;;0.60;99.90;;;;;;6238667;23;20008;-86
2023/03/08 08:53:46;;;;;;;19.48;13.90;;;0.70;99.90;;;;;;6245538;23;20067;-85
2023/03/08 08:56:17;;;;;;;20.77;14.07;;;0.70;99.90;;;;;;6220390;23;20028;-86
2023/03/08 08:58:43;;;;;;;21.67;16.30;;;0.70;99.90;;;;;;6241705;23;20110;-86
2023/03/08 09:01:30;;;;;;;23.25;15.48;;;0.80;99.90;;;;;;6216375;23;20074;-87
2023/03/08 09:03:56;;;;;;;21.55;14.80;;;0.80;99.90;;;;;;6239072;23;20012;-87
2023/03/08 09:06:23;;;;;;;22.75;15.65;;;0.90;99.90;;;;;;6239778;23;20031;-88
2023/03/08 09:08:54;;;;;;;25.13;14.82;;;0.90;99.90;;;;;;6214226;23;20505;-88
2023/03/08 09:11:21;;;;;;;24.90;14.70;;;0.90;99.90;;;;;;6239066;23;20307;-88
2023/03/08 09:13:47;;;;;;;21.90;14.35;;;0.90;99.90;;;;;;6239097;23;20055;-87
2023/03/08 09:16:27;;;;;;;21.38;16.05;;;1.00;99.90;;;;;;6188485;23;20080;-87
2023/03/08 09:18:55;;;;;;;22.63;14.32;;;1.00;99.90;;;;;;6213291;23;20398;-87
2023/03/08 09:21:20;;;;;;;21.88;15.55;;;1.00;99.90;;;;;;6213238;23;20023;-87
2023/03/08 09:23:46;;;;;;;21.05;13.70;;;1.00;99.90;;;;;;6239312;23;20009;-87
2023/03/08 09:26:12;;;;;;;21.75;15.25;;;1.00;99.90;;;;;;6213028;23;20016;-88
2023/03/08 09:28:38;;;;;;;20.35;13.63;;;1.10;99.90;;;;;;6240916;23;20387;-86
2023/03/08 09:31:11;;;;;;;19.67;14.18;;;1.10;99.90;;;;;;6240914;23;20338;-86
2023/03/08 09:33:42;;;;;;;20.30;13.77;;;1.20;99.90;;;;;;6211871;23;20015;-85
2023/03/08 09:36:08;;;;;;;19.92;12.60;;;1.20;99.90;;;;;;6211356;23;20012;-86
2023/03/08 09:38:34;;;;;;;19.73;13.07;;;1.20;99.90;;;;;;6238703;23;20090;-84
2023/03/08 09:41:05;;;;;;;19.10;12.35;;;1.30;99.90;;;;;;6213079;23;20048;-85
2023/03/08 09:44:13;;;;;;;19.38;13.07;;;1.30;99.90;;;;;;6212899;23;20398;-85
2023/03/08 09:46:49;;;;;;;19.23;12.50;;;1.40;99.90;;;;;;6211443;23;20278;-85
2023/03/08 09:49:24;;;;;;;19.00;12.57;;;1.40;99.90;;;;;;6239872;23;20020;-87
2023/03/08 09:51:55;;;;;;;18.15;12.05;;;1.40;99.90;;;;;;6213596;23;20091;-85
2023/03/08 09:54:23;;;;;;;19.90;13.82;;;1.50;99.90;;;;;;6212159;23;20012;-85
2023/03/08 09:56:51;;;;;;;20.33;14.32;;;1.50;99.90;;;;;;6240761;23;20012;-85
2023/03/08 09:59:24;;;;;;;18.80;13.40;;;1.50;99.90;;;;;;6187913;23;20398;-85
2023/03/08 10:02:14;;;;;;;20.73;14.43;;;1.60;99.90;;;;;;6211908;23;20016;-85
2023/03/08 10:04:48;;;;;;;21.58;14.13;;;1.60;99.90;;;;;;6212119;23;20048;-85
2023/03/08 10:07:24;;;;;;;18.88;13.68;;;1.60;99.90;;;;;;6188723;23;20031;-84
2023/03/08 10:10:24;;;;;;;22.73;13.77;;;1.70;99.90;;;;;;6213920;23;20047;-84
2023/03/08 10:13:02;;;;;;;20.23;13.90;;;1.90;99.90;;;;;;6212751;23;20024;-85
2023/03/08 10:15:31;;;;;;;19.40;14.23;;;1.90;99.90;;;;;;6212075;23;20019;-84
2023/03/08 10:18:15;;;;;;;20.27;13.23;;;2.00;99.90;;;;;;6213299;23;20051;-84
2023/03/08 10:20:42;;;;;;;19.80;13.07;;;2.00;99.90;;;;;;6212315;23;20042;-84
2023/03/08 10:23:15;;;;;;;18.08;12.45;;;2.00;99.90;;;;;;6214013;23;20030;-85
2023/03/08 10:25:42;;;;;;;17.90;12.02;;;2.10;99.90;;;;;;6213194;23;20023;-85
2023/03/08 10:28:16;;;;;;;17.27;12.13;;;2.20;99.90;;;;;;6213695;23;20008;-84
2023/03/08 10:30:59;;;;;;;16.48;11.48;;;2.20;99.90;;;;;;6241691;23;20020;-86
2023/03/08 10:33:31;;;;;;;18.45;12.45;;;2.20;99.90;;;;;;6244403;23;20461;-85
2023/03/08 10:36:19;;;;;;;17.40;12.27;;;2.30;99.90;;;;;;6220884;23;20015;-85
2023/03/08 10:39:00;;;;;;;16.58;12.13;;;2.40;99.90;;;;;;6214209;23;20016;-85
2023/03/08 10:41:28;;;;;;;18.92;12.75;;;2.50;99.90;;;;;;6212329;23;20012;-84
2023/03/08 10:43:55;;;;;;;17.05;12.23;;;2.60;99.90;;;;;;6213984;23;20012;-84
2023/03/08 10:46:24;;;;;;;17.55;12.23;;;2.70;99.90;;;;;;6240770;23;20039;-85
2023/03/08 10:48:50;;;;;;;16.38;11.13;;;2.70;99.90;;;;;;6212121;23;20020;-83
2023/03/08 10:51:26;;;;;;;18.63;12.30;;;2.80;99.90;;;;;;6211115;23;20620;-84
2023/03/08 10:53:56;;;;;;;18.88;12.13;;;2.90;99.90;;;;;;6213229;23;20027;-85
2023/03/08 10:56:45;;;;;;;17.38;11.70;;;3.00;99.90;;;;;;6238082;23;20384;-85
2023/03/08 10:59:20;;;;;;;19.15;11.95;;;3.00;99.90;;;;;;6210705;23;20023;-86
2023/03/08 11:01:53;;;;;;;20.58;13.80;;;3.10;99.90;;;;;;6211143;23;20020;-85
2023/03/08 11:04:21;;;;;;;20.83;12.80;;;3.20;99.90;;;;;;6209714;23;20043;-85
2023/03/08 11:06:47;;;;;;;21.00;18.80;;;3.20;99.90;;;;;;6212925;23;20012;-85
2023/03/08 11:09:18;;;;;;;19.17;12.73;;;3.40;99.90;;;;;;6240264;23;20036;-85
2023/03/08 11:11:44;;;;;;;19.80;12.60;;;3.40;99.90;;;;;;6238487;23;20016;-87
2023/03/08 11:14:11;;;;;;;21.40;17.85;;;3.40;99.90;;;;;;6212593;23;20319;-86
2023/03/08 11:16:44;;;;;;;19.83;11.82;;;3.50;99.90;;;;;;6209823;23;20079;-86
2023/03/08 11:19:37;;;;;;;17.88;11.85;;;3.50;99.90;;;;;;6211124;23;20031;-89
2023/03/08 11:22:24;;;;;;;20.67;18.48;;;3.50;99.90;;;;;;6212695;23;20024;-93
2023/03/08 11:24:59;;;;;;;18.70;11.77;;;3.70;99.90;;;;;;6241217;23;20008;-88
2023/03/08 11:27:52;;;;;;;19.00;11.15;;;3.60;99.90;;;;;;6210624;23;20047;-87
2023/03/08 11:30:42;;;;;;;16.60;10.75;;;3.70;99.90;;;;;;6239544;23;20316;-89
2023/03/08 11:33:38;;;;;;;19.17;11.57;;;3.70;99.90;;;;;;6239505;23;20023;-90
2023/03/08 11:36:32;;;;;;;18.17;16.30;;;3.80;99.90;;;;;;6239303;23;20021;-89
2023/03/08 11:39:09;;;;;;;19.38;11.57;;;3.90;99.90;;;;;;6202280;23;20020;-86
2023/03/08 11:41:54;;;;;;;17.00;10.98;;;4.00;99.90;;;;;;6212219;23;20015;-87
2023/03/08 11:44:31;;;;;;;16.52;10.32;;;4.00;99.90;;;;;;6186544;23;20008;-88
2023/03/08 11:47:19;;;;;;;16.42;9.60;;;4.00;99.90;;;;;;6212086;23;20044;-89
2023/03/08 11:50:10;;;;;;;19.15;15.40;;;4.10;99.90;;;;;;6212783;23;20087;-87
2023/03/08 11:53:00;;;;;;;16.90;10.13;;;4.20;99.90;;;;;;6239611;23;20095;-88
2023/03/08 11:55:43;;;;;;;18.60;10.55;;;4.30;99.90;;;;;;6214282;23;20024;-90
2023/03/08 11:58:24;;;;;;;19.55;10.75;;;4.30;99.90;;;;;;6239566;23;20108;-88
2023/03/08 12:00:55;;;;;;;15.77;9.40;;;4.30;99.90;;;;;;6246806;23;20034;-89
2023/03/08 12:03:25;;;;;;;18.15;15.95;;;4.40;99.90;;;;;;6216204;23;20009;-87
2023/03/08 12:05:55;;;;;;;17.15;9.85;;;4.40;99.90;;;;;;6213272;23;20016;-88
2023/03/08 12:08:30;;;;;;;16.55;13.50;;;4.40;99.90;;;;;;6188491;23;20043;-88
2023/03/08 12:11:29;;;;;;;16.50;9.35;;;4.50;99.90;;;;;;6238501;23;20012;-88
2023/03/08 12:14:12;;;;;;;16.25;12.32;;;4.60;99.90;;;;;;6227457;23;20012;-87
2023/03/08 12:16:43;;;;;;;16.63;12.73;;;4.70;99.90;;;;;;6211728;23;20452;-87
2023/03/08 12:19:38;;;;;;;15.27;11.63;;;4.80;99.90;;;;;;6212283;23;20027;-87
2023/03/08 12:22:32;;;;;;;12.50;6.28;;;4.70;99.90;;;;;;6235441;23;20012;-87
2023/03/08 12:25:07;;;;;;;14.10;10.52;;;4.70;99.90;;;;;;6214462;23;20031;-86
2023/03/08 12:27:54;;;;;;;14.20;10.48;;;4.70;99.90;;;;;;6218364;23;20016;-88
2023/03/08 12:30:43;;;;;;;13.52;6.05;;;4.80;99.90;;;;;;6211617;23;20020;-88
2023/03/08 12:33:12;;;;;;;12.40;8.63;;;4.80;99.90;;;;;;6212251;23;20020;-87
2023/03/08 12:35:53;;;;;;;13.13;6.32;;;4.90;99.90;;;;;;6239461;23;20150;-88
2023/03/08 12:38:18;;;;;;;12.40;9.27;;;4.90;99.90;;;;;;6212270;23;20016;-87
2023/03/08 12:40:46;;;;;;;13.70;8.48;;;5.00;99.90;;;;;;6240752;23;20016;-87
2023/03/08 12:43:18;;;;;;;12.30;8.57;;;4.90;99.90;;;;;;6240195;23;20376;-88
2023/03/08 12:45:47;;;;;;;12.00;8.50;;;5.00;99.90;;;;;;6239850;23;20066;-87
2023/03/08 12:48:18;;;;;;;12.45;8.35;;;5.10;99.90;;;;;;6241153;23;20210;-87
2023/03/08 12:50:54;;;;;;;;;;;5.10;99.90;;;;;;6242251;23;20079;-87
2023/03/08 12:53:36;;;;;;;11.65;7.30;;;5.00;99.90;;;;;;6213136;23;19939;-88
2023/03/08 12:56:24;;;;;;;10.75;4.35;;;5.10;99.90;;;;;;6213128;23;20024;-88
2023/03/08 12:59:00;;;;;;;12.98;4.32;;;5.10;99.90;;;;;;6241670;23;20023;-88
2023/03/08 13:01:39;;;;;;;12.45;7.35;;;5.10;99.90;;;;;;6216857;23;20087;-87
2023/03/08 13:04:29;;;;;;;10.15;6.38;;;5.10;99.90;;;;;;6224751;23;20023;-88
2023/03/08 13:07:17;;;;;;;12.53;4.70;;;5.10;99.90;;;;;;6245813;23;20012;-88
2023/03/08 13:09:46;;;;;;;10.77;6.30;;;5.10;99.90;;;;;;6187906;23;20147;-87
2023/03/08 13:12:15;;;;;;;11.27;6.70;;;5.10;99.90;;;;;;6241575;23;20012;-88
2023/03/08 13:15:02;;;;;;;11.77;4.60;;;5.20;99.90;;;;;;6245687;23;20066;-87
2023/03/08 13:17:30;;;;;;;10.82;6.47;;;5.20;99.90;;;;;;6252506;23;20094;-87
2023/03/08 13:19:59;;;;;;;12.13;6.43;;;5.10;99.90;;;;;;6244154;23;20016;-87
2023/03/08 13:22:53;;;;;;;10.35;6.55;;;5.20;99.90;;;;;;6239066;23;20476;-89
2023/03/08 13:25:26;;;;;;;10.10;6.28;;;5.20;99.90;;;;;;6238149;23;20481;-91
2023/03/08 13:28:16;;;;;;;9.52;6.22;;;5.20;99.90;;;;;;6186884;23;20024;-87
2023/03/08 13:30:48;;;;;;;10.27;6.05;;;5.20;99.90;;;;;;6210808;23;20311;-87
2023/03/08 13:33:19;;;;;;;10.25;5.03;;;5.10;99.90;;;;;;6212497;23;20034;-88
2023/03/08 13:36:04;;;;;;;10.70;6.97;;;5.00;99.90;;;;;;6188818;23;20019;-87
2023/03/08 13:38:35;;;;;;;9.82;4.15;;;5.10;99.90;;;;;;6240299;23;20414;-87
2023/03/08 13:41:02;;;;;;;10.20;6.40;;;5.00;99.90;;;;;;6210327;23;20437;-88